PWSweather.com
Personal Weather Stations
Station Observations
KETX01
Ketx, PatraGR 26331

KetxPatraGR 26331

Lat: 38.238889, Lon: 21.751111

Elevation: 56

Station Type: Davis Instruments / Vantage Pro2 Plus

http://meteopatras.eu

Latest ConditionsUpdated 2:10:01 AM GMT+02:02 Thursday, Mar 21, 2019
Currently Today's Max Today's Min Today's Average
Temperature 63.3°F17.4°C 64.0°F17.8°C 61.8°F16.6°C 62.7°F17.1°C
Dew Point 43.8°F6.6°C 46.0°F7.8°C 43.8°F6.6°C 45.2°F7.3°C
Winds 3.5 mph NE5.6 kmh NE 8.1 mph -13.0 kmh - - 4.2 mph 6.8 kmh
Wind Gusts 9.2 mph14.8 kmh 17.3 mph27.8 kmh - -
Humidity 49% 56% 49% 53%
Pressure 30.12 in1020.0 mb 30.13 in1020.3 mb 30.11 in1019.6 mb -
Hour Temp Dew Point Humidity Winds Wind Gusts Pressure Precip Precip Rate Daily Precip Total
02:10 AM 63.3°F17.4°C 43.8°F6.6°C 49% 3.5 mph NE5.6 kmh NE 9.2 mph14.8 kmh 30.12 in1020.0 mb - 0.00 in0.0 mm 0.00 in0.0 mm
02:05 AM 63.0°F17.2°C 44.6°F7.0°C 51% 6.9 mph ESE11.1 kmh ESE 10.4 mph16.7 kmh 30.12 in1020.0 mb - 0.00 in0.0 mm 0.00 in0.0 mm
02:00 AM 62.7°F17.1°C 44.8°F7.1°C 52% 5.8 mph SE9.3 kmh SE 11.5 mph18.5 kmh 30.12 in1020.0 mb - 0.00 in0.0 mm 0.00 in0.0 mm
01:55 AM 62.9°F17.2°C 45.5°F7.5°C 53% 3.5 mph SE5.6 kmh SE 6.9 mph11.1 kmh 30.12 in1020.0 mb - 0.00 in0.0 mm 0.00 in0.0 mm
01:50 AM 62.9°F17.2°C 46.0°F7.8°C 54% 4.6 mph N7.4 kmh N 9.2 mph14.8 kmh 30.12 in1020.0 mb - 0.00 in0.0 mm 0.00 in0.0 mm
01:45 AM 63.6°F17.6°C 45.6°F7.6°C 52% 4.6 mph SE7.4 kmh SE 4.6 mph7.4 kmh 30.12 in1020.0 mb - 0.00 in0.0 mm 0.00 in0.0 mm
01:40 AM 63.5°F17.5°C 44.0°F6.7°C 49% 4.6 mph NE7.4 kmh NE 11.5 mph18.5 kmh 30.11 in1019.6 mb - 0.00 in0.0 mm 0.00 in0.0 mm
01:35 AM 62.8°F17.1°C 44.9°F7.2°C 52% 6.9 mph ESE11.1 kmh ESE 17.3 mph27.8 kmh 30.12 in1020.0 mb - 0.00 in0.0 mm 0.00 in0.0 mm
01:30 AM 62.7°F17.1°C 45.8°F7.7°C 54% 4.6 mph SE7.4 kmh SE 11.5 mph18.5 kmh 30.12 in1020.0 mb - 0.00 in0.0 mm 0.00 in0.0 mm
01:25 AM 62.8°F17.1°C 45.4°F7.4°C 53% 6.9 mph ESE11.1 kmh ESE 9.2 mph14.8 kmh 30.11 in1019.6 mb - 0.00 in0.0 mm 0.00 in0.0 mm
01:20 AM 62.4°F16.9°C 44.6°F7.0°C 52% 8.1 mph ENE13.0 kmh ENE 10.4 mph16.7 kmh 30.11 in1019.6 mb - 0.00 in0.0 mm 0.00 in0.0 mm
01:15 AM 62.2°F16.8°C 45.4°F7.4°C 54% 3.5 mph N5.6 kmh N 8.1 mph13.0 kmh 30.11 in1019.6 mb - 0.00 in0.0 mm 0.00 in0.0 mm
01:10 AM 63.0°F17.2°C 45.6°F7.6°C 53% 2.3 mph ESE3.7 kmh ESE 3.5 mph5.6 kmh 30.11 in1019.6 mb - 0.00 in0.0 mm 0.00 in0.0 mm
01:05 AM 63.1°F17.3°C 44.6°F7.0°C 51% 2.3 mph ENE3.7 kmh ENE 3.5 mph5.6 kmh 30.11 in1019.6 mb - 0.00 in0.0 mm 0.00 in0.0 mm
01:00 AM 62.6°F17.0°C 44.2°F6.8°C 51% Calm Calm -- 30.12 in1020.0 mb - 0.00 in0.0 mm 0.00 in0.0 mm
12:55 AM 62.0°F16.7°C 45.6°F7.6°C 55% 4.6 mph SE7.4 kmh SE 8.1 mph13.0 kmh 30.12 in1020.0 mb - 0.00 in0.0 mm 0.00 in0.0 mm
12:50 AM 62.3°F16.8°C 45.4°F7.4°C 54% 4.6 mph ESE7.4 kmh ESE 8.1 mph13.0 kmh 30.12 in1020.0 mb - 0.00 in0.0 mm 0.00 in0.0 mm
12:45 AM 61.8°F16.6°C 45.5°F7.5°C 55% 5.8 mph N9.3 kmh N 10.4 mph16.7 kmh 30.11 in1019.6 mb - 0.00 in0.0 mm 0.00 in0.0 mm
12:40 AM 62.3°F16.8°C 46.0°F7.8°C 55% Calm Calm -- 30.11 in1019.6 mb - 0.00 in0.0 mm 0.00 in0.0 mm
12:35 AM 63.0°F17.2°C 45.6°F7.6°C 53% 6.9 mph E11.1 kmh E 11.5 mph18.5 kmh 30.11 in1019.6 mb - 0.00 in0.0 mm 0.00 in0.0 mm
12:30 AM 62.6°F17.0°C 44.7°F7.1°C 52% 3.5 mph NNW5.6 kmh NNW 9.2 mph14.8 kmh 30.11 in1019.6 mb - 0.00 in0.0 mm 0.00 in0.0 mm
12:25 AM 61.9°F16.6°C 45.5°F7.5°C 55% 4.6 mph NNE7.4 kmh NNE 10.4 mph16.7 kmh 30.11 in1019.6 mb - 0.00 in0.0 mm 0.00 in0.0 mm
12:20 AM 61.8°F16.6°C 45.9°F7.7°C 56% 5.8 mph N9.3 kmh N 9.2 mph14.8 kmh 30.12 in1020.0 mb - 0.00 in0.0 mm 0.00 in0.0 mm
12:15 AM 62.0°F16.7°C 45.7°F7.6°C 55% Calm Calm -- 30.12 in1020.0 mb - 0.00 in0.0 mm 0.00 in0.0 mm
12:10 AM 62.6°F17.0°C 45.7°F7.6°C 54% 4.6 mph SE7.4 kmh SE 3.5 mph5.6 kmh 30.13 in1020.3 mb - 0.00 in0.0 mm 0.00 in0.0 mm
12:05 AM 63.5°F17.5°C 45.5°F7.5°C 52% 2.3 mph E3.7 kmh E 3.5 mph5.6 kmh 30.11 in1019.6 mb - 0.00 in0.0 mm 0.00 in0.0 mm
12:00 AM 64.0°F17.8°C 45.5°F7.5°C 51% 3.5 mph ESE5.6 kmh ESE 3.5 mph5.6 kmh 30.12 in1020.0 mb - 0.00 in0.0 mm 0.00 in0.0 mm